Terminal Aerodrome Forecast
Issued by NWS Blacksburg, VA

Home | Current Version | Previous Version | Text Only | Print | Product List | Glossary On
Versions: 1 2 3 4 5 6 7 8 9 10 11 12 13 14 15 16 17 18 19 20 21 22 23 24 25 26 27 28 29 30 31 32
000
FTUS41 KRNK 302321
TAFROA
TAF
KROA 302321Z 3100/3124 15008KT P6SM SCT040
     FM310200 16005KT P6SM SCT035
     FM311500 22004KT P6SM SCT020 BKN080
     FM311800 19008KT P6SM BKN045=

USA.gov is the U.S. government's official web portal to all federal, state and local government web resources and services.